Time;durP1;ratioP1;P1;durP2;ratioP2;P2;SDS_P1;SDS_P2;PMS_P1;PMS_P2;Temp;Humidity;BMP_temperature;BMP_pressure;BME280_temperature;BME280_humidity;BME280_pressure;Samples;Min_cycle;Max_cycle;Signal;HPM_P1;HPM_P2
2021/10/15 00:01:06;;;;;;;15.30;10.65;;;13.50;99.90;;;;;;5054781;28;25107;-69
2021/10/15 00:03:31;;;;;;;16.95;11.07;;;13.50;99.90;;;;;;5062729;28;25060;-66
2021/10/15 00:05:57;;;;;;;18.13;11.77;;;13.50;99.90;;;;;;5045733;28;25064;-69
2021/10/15 00:08:22;;;;;;;15.70;10.25;;;13.40;99.90;;;;;;5034623;28;25058;-68
2021/10/15 00:10:48;;;;;;;12.50;10.18;;;13.40;99.90;;;;;;5046444;28;25074;-69
2021/10/15 00:13:14;;;;;;;17.55;9.85;;;13.40;99.90;;;;;;5046735;28;25115;-68
2021/10/15 00:15:39;;;;;;;18.92;11.15;;;13.40;99.90;;;;;;5044623;28;25067;-67
2021/10/15 00:18:05;;;;;;;16.67;10.57;;;13.40;99.90;;;;;;5052630;28;25066;-68
2021/10/15 00:20:31;;;;;;;20.77;10.60;;;13.40;99.90;;;;;;5046332;28;26207;-68
2021/10/15 00:22:56;;;;;;;13.38;9.40;;;13.40;99.90;;;;;;5042048;28;25061;-67
2021/10/15 00:25:22;;;;;;;13.73;9.80;;;13.40;99.90;;;;;;5039818;28;25088;-68
2021/10/15 00:27:47;;;;;;;16.92;10.52;;;13.40;99.90;;;;;;5046150;28;25066;-68
2021/10/15 00:30:13;;;;;;;17.80;11.27;;;13.40;99.90;;;;;;5046457;28;25084;-67
2021/10/15 00:32:39;;;;;;;14.48;10.23;;;13.40;99.90;;;;;;5041919;28;25079;-69
2021/10/15 00:35:05;;;;;;;14.88;10.25;;;13.40;99.90;;;;;;5046760;28;25060;-67
2021/10/15 00:37:31;;;;;;;15.40;10.45;;;13.40;99.90;;;;;;5033830;28;25073;-69
2021/10/15 00:39:56;;;;;;;14.02;10.32;;;13.40;99.90;;;;;;5037612;28;25101;-67
2021/10/15 00:42:22;;;;;;;17.45;10.15;;;13.40;99.90;;;;;;5021564;28;25064;-67
2021/10/15 00:44:47;;;;;;;16.58;10.40;;;13.40;99.90;;;;;;5025210;28;25063;-67
2021/10/15 00:47:13;;;;;;;11.70;10.02;;;13.40;99.90;;;;;;5051370;28;25083;-67
2021/10/15 00:49:39;;;;;;;14.75;10.02;;;13.40;99.90;;;;;;5047800;28;25057;-67
2021/10/15 00:52:07;;;;;;;17.33;11.60;;;13.40;99.90;;;;;;5045585;28;25074;-67
2021/10/15 00:54:33;;;;;;;16.17;11.13;;;13.40;99.90;;;;;;5036268;28;25072;-67
2021/10/15 00:56:58;;;;;;;14.32;11.25;;;13.40;99.90;;;;;;5046579;28;25081;-67
2021/10/15 00:59:24;;;;;;;16.23;11.57;;;13.40;99.90;;;;;;5040604;28;25063;-65
2021/10/15 01:01:50;;;;;;;14.90;10.95;;;13.40;99.90;;;;;;5042441;28;25063;-67
2021/10/15 01:04:15;;;;;;;19.70;11.50;;;13.40;99.90;;;;;;5045540;28;25091;-67
2021/10/15 01:06:41;;;;;;;18.80;12.45;;;13.30;99.90;;;;;;5019124;28;25062;-67
2021/10/15 01:09:07;;;;;;;15.07;11.13;;;13.30;99.90;;;;;;5047324;28;25063;-67
2021/10/15 01:11:33;;;;;;;15.23;12.18;;;13.30;99.90;;;;;;5040084;28;25064;-67
2021/10/15 01:13:59;;;;;;;15.55;11.50;;;13.30;99.90;;;;;;5047158;28;25066;-68
2021/10/15 01:16:27;;;;;;;14.73;10.32;;;13.30;99.90;;;;;;5041100;28;25154;-67
2021/10/15 01:18:57;;;;;;;14.38;10.52;;;13.40;99.90;;;;;;5043076;28;25096;-67
2021/10/15 01:21:23;;;;;;;15.95;11.77;;;13.40;99.90;;;;;;5046240;28;25066;-67
2021/10/15 01:23:49;;;;;;;16.65;10.93;;;13.30;99.90;;;;;;5048208;28;25102;-67
2021/10/15 01:26:15;;;;;;;17.52;11.32;;;13.30;99.90;;;;;;5038905;28;25084;-66
2021/10/15 01:28:40;;;;;;;18.83;11.23;;;13.30;99.90;;;;;;5048301;28;25140;-66
2021/10/15 01:31:06;;;;;;;18.15;11.90;;;13.40;99.90;;;;;;5047933;28;25098;-67
2021/10/15 01:33:33;;;;;;;24.15;11.27;;;13.40;99.90;;;;;;5045379;28;25060;-66
2021/10/15 01:36:00;;;;;;;18.30;10.95;;;13.30;99.90;;;;;;5048372;28;25068;-67
2021/10/15 01:38:26;;;;;;;15.77;10.60;;;13.30;99.90;;;;;;5046971;28;25143;-67
2021/10/15 01:40:52;;;;;;;16.98;11.52;;;13.40;99.90;;;;;;5039046;28;25070;-66
2021/10/15 01:43:23;;;;;;;20.98;11.60;;;13.30;99.90;;;;;;5040461;28;25095;-67
2021/10/15 01:45:49;;;;;;;17.00;12.10;;;13.30;99.90;;;;;;5035520;28;25066;-67
2021/10/15 01:48:15;;;;;;;16.83;11.50;;;13.40;99.90;;;;;;5048512;28;25051;-67
2021/10/15 01:50:41;;;;;;;18.67;11.35;;;13.40;99.90;;;;;;5042140;28;25091;-68
2021/10/15 01:53:06;;;;;;;18.02;10.65;;;13.40;99.90;;;;;;5047547;28;25069;-66
2021/10/15 01:55:32;;;;;;;17.45;11.10;;;13.40;99.90;;;;;;5041685;28;25098;-67
2021/10/15 01:57:58;;;;;;;21.05;10.80;;;13.40;99.90;;;;;;5046164;28;25147;-68
2021/10/15 02:00:23;;;;;;;21.05;10.65;;;13.50;99.90;;;;;;5049477;28;25074;-67
2021/10/15 02:02:49;;;;;;;15.52;9.73;;;13.50;99.90;;;;;;5045594;28;25095;-66
2021/10/15 02:05:16;;;;;;;16.58;10.60;;;13.50;99.90;;;;;;5045515;28;25116;-67
2021/10/15 02:07:43;;;;;;;17.40;11.13;;;13.60;99.90;;;;;;5040994;28;25137;-67
2021/10/15 02:10:11;;;;;;;21.35;11.45;;;13.50;99.90;;;;;;5030884;28;25131;-67
2021/10/15 02:12:37;;;;;;;19.80;10.27;;;13.50;99.90;;;;;;5040544;28;25087;-68
2021/10/15 02:15:04;;;;;;;18.42;10.68;;;13.50;99.90;;;;;;5040841;28;25148;-67
2021/10/15 02:17:30;;;;;;;16.88;11.05;;;13.40;99.90;;;;;;5028939;28;25072;-67
2021/10/15 02:19:56;;;;;;;15.50;10.77;;;13.40;99.90;;;;;;5043252;28;25079;-67
2021/10/15 02:22:21;;;;;;;17.20;10.07;;;13.40;99.90;;;;;;5048329;28;25078;-66
2021/10/15 02:24:47;;;;;;;17.50;10.77;;;13.40;99.90;;;;;;5047172;28;25059;-68
2021/10/15 02:27:13;;;;;;;18.88;10.57;;;13.40;99.90;;;;;;5024669;28;25103;-66
2021/10/15 02:29:38;;;;;;;17.38;11.68;;;13.40;99.90;;;;;;5049011;28;25060;-69
2021/10/15 02:32:04;;;;;;;18.27;11.30;;;13.40;99.90;;;;;;5043552;28;25055;-67
2021/10/15 02:34:30;;;;;;;17.85;11.00;;;13.40;99.90;;;;;;5048301;28;25087;-67
2021/10/15 02:36:56;;;;;;;17.05;11.15;;;13.40;99.90;;;;;;5043735;28;26169;-67
2021/10/15 02:39:21;;;;;;;15.50;11.05;;;13.40;99.90;;;;;;5036645;28;25149;-67
2021/10/15 02:41:47;;;;;;;21.83;12.50;;;13.40;99.90;;;;;;5038938;28;25054;-67
2021/10/15 02:44:14;;;;;;;18.08;10.90;;;13.40;99.90;;;;;;5036566;28;25065;-67
2021/10/15 02:46:40;;;;;;;17.90;11.68;;;13.50;99.90;;;;;;5043353;28;25104;-65
2021/10/15 02:49:07;;;;;;;21.60;11.32;;;13.40;99.90;;;;;;5047374;28;25067;-67
2021/10/15 02:51:33;;;;;;;19.58;11.65;;;13.40;99.90;;;;;;5047235;28;25076;-67
2021/10/15 02:53:59;;;;;;;18.20;11.15;;;13.40;99.90;;;;;;5042876;28;25054;-67
2021/10/15 02:56:24;;;;;;;20.30;12.10;;;13.40;99.90;;;;;;5044109;28;25072;-66
2021/10/15 02:58:50;;;;;;;18.67;12.02;;;13.40;99.90;;;;;;5035168;28;25054;-67
2021/10/15 03:01:16;;;;;;;16.33;10.30;;;13.40;99.90;;;;;;5037373;28;25124;-67
2021/10/15 03:03:42;;;;;;;17.65;11.07;;;13.40;99.90;;;;;;5046386;28;25098;-67
2021/10/15 03:06:08;;;;;;;22.75;12.07;;;13.40;99.90;;;;;;5043035;28;25119;-67
2021/10/15 03:08:33;;;;;;;20.80;12.45;;;13.40;99.90;;;;;;5037559;28;25156;-67
2021/10/15 03:10:59;;;;;;;18.98;12.38;;;13.50;99.90;;;;;;5043208;28;25083;-66
2021/10/15 03:13:25;;;;;;;19.75;12.35;;;13.40;99.90;;;;;;5044572;28;25071;-68
2021/10/15 03:15:50;;;;;;;19.70;11.18;;;13.50;99.90;;;;;;5043057;28;25065;-68
2021/10/15 03:18:17;;;;;;;17.50;10.93;;;13.50;99.90;;;;;;5038641;28;25093;-68
2021/10/15 03:20:43;;;;;;;20.75;11.88;;;13.50;99.90;;;;;;5041530;28;25141;-68
2021/10/15 03:23:10;;;;;;;23.08;12.48;;;13.40;99.90;;;;;;5036737;28;25102;-65
2021/10/15 03:25:36;;;;;;;21.27;12.90;;;13.40;99.90;;;;;;5047473;28;25052;-68
2021/10/15 03:28:01;;;;;;;19.08;11.77;;;13.40;99.90;;;;;;5042777;28;25076;-66
2021/10/15 03:30:27;;;;;;;19.63;12.30;;;13.40;99.90;;;;;;5048214;28;25080;-68
2021/10/15 03:32:52;;;;;;;24.42;13.13;;;13.40;99.90;;;;;;5047546;28;25061;-66
2021/10/15 03:35:18;;;;;;;18.15;12.25;;;13.40;99.90;;;;;;5041838;28;25142;-67
2021/10/15 03:37:44;;;;;;;22.27;14.93;;;13.40;99.90;;;;;;5043707;28;25093;-67
2021/10/15 03:40:10;;;;;;;23.13;13.30;;;13.50;99.90;;;;;;5043890;28;25109;-67
2021/10/15 03:42:37;;;;;;;21.88;14.40;;;13.40;99.90;;;;;;5040181;28;25048;-67
2021/10/15 03:45:04;;;;;;;17.92;12.25;;;13.40;99.90;;;;;;5033827;28;25071;-68
2021/10/15 03:47:30;;;;;;;18.15;12.35;;;13.40;99.90;;;;;;5034055;28;25173;-67
2021/10/15 03:49:56;;;;;;;19.73;12.45;;;13.50;99.90;;;;;;5036754;28;25073;-68
2021/10/15 03:52:21;;;;;;;17.55;12.50;;;13.50;99.90;;;;;;5044309;28;25075;-69
2021/10/15 03:54:47;;;;;;;17.17;11.63;;;13.40;99.90;;;;;;5032030;28;25076;-67
2021/10/15 03:57:12;;;;;;;19.77;12.63;;;13.40;99.90;;;;;;5033707;28;25105;-67
2021/10/15 03:59:38;;;;;;;21.70;13.02;;;13.50;99.90;;;;;;5037317;28;25099;-69
2021/10/15 04:02:04;;;;;;;19.15;12.18;;;13.40;99.90;;;;;;5038701;28;25104;-67
2021/10/15 04:04:29;;;;;;;21.48;13.05;;;13.40;99.90;;;;;;5027166;28;25062;-68
2021/10/15 04:06:56;;;;;;;20.73;12.48;;;13.40;99.90;;;;;;5044509;28;25070;-66
2021/10/15 04:09:21;;;;;;;20.13;12.23;;;13.40;99.90;;;;;;5028770;28;25054;-67
2021/10/15 04:11:47;;;;;;;16.05;11.38;;;13.40;99.90;;;;;;5040914;28;25057;-67
2021/10/15 04:14:12;;;;;;;21.55;12.80;;;13.40;99.90;;;;;;5034172;28;25057;-68
2021/10/15 04:16:38;;;;;;;22.60;13.18;;;13.50;99.90;;;;;;5030064;28;25153;-65
2021/10/15 04:19:04;;;;;;;19.50;12.27;;;13.50;99.90;;;;;;5037753;28;25115;-64
2021/10/15 04:21:29;;;;;;;17.73;12.20;;;13.50;99.90;;;;;;5039279;28;25150;-66
2021/10/15 04:23:55;;;;;;;25.50;12.13;;;13.50;99.90;;;;;;5044042;28;25104;-66
2021/10/15 04:26:21;;;;;;;21.40;12.90;;;13.50;99.90;;;;;;5037644;28;25083;-66
2021/10/15 04:28:46;;;;;;;22.10;13.15;;;13.50;99.90;;;;;;5066862;22;25053;-59
2021/10/15 04:31:12;;;;;;;20.33;12.68;;;13.50;99.90;;;;;;5049880;28;25102;-61
2021/10/15 04:33:38;;;;;;;18.33;12.73;;;13.50;99.90;;;;;;5045969;28;25091;-61
2021/10/15 04:36:03;;;;;;;19.58;12.57;;;13.60;99.90;;;;;;5048572;28;25089;-61
2021/10/15 04:38:29;;;;;;;23.27;12.85;;;13.50;99.90;;;;;;5036035;28;25055;-60
2021/10/15 04:40:55;;;;;;;20.08;13.25;;;13.50;99.90;;;;;;5042148;28;25085;-62
2021/10/15 04:43:20;;;;;;;18.92;13.38;;;13.50;99.90;;;;;;5047726;28;25076;-66
2021/10/15 04:45:46;;;;;;;21.35;12.50;;;13.50;99.90;;;;;;5046624;28;25109;-60
2021/10/15 04:48:11;;;;;;;18.90;13.10;;;13.50;99.90;;;;;;5032588;28;25065;-62
2021/10/15 04:50:37;;;;;;;21.65;13.60;;;13.50;99.90;;;;;;5049630;28;25079;-65
2021/10/15 04:53:04;;;;;;;21.30;13.07;;;13.40;99.90;;;;;;5043273;28;25082;-62
2021/10/15 04:55:30;;;;;;;22.58;13.48;;;13.50;99.90;;;;;;5035507;28;25098;-62
2021/10/15 04:58:00;;;;;;;22.45;11.30;;;13.50;99.90;;;;;;5019913;28;25072;-61
2021/10/15 05:00:27;;;;;;;23.83;13.30;;;13.60;99.90;;;;;;5036594;28;25132;-61
2021/10/15 05:02:53;;;;;;;21.00;11.40;;;13.60;99.90;;;;;;5042932;28;25133;-62
2021/10/15 05:05:27;;;;;;;27.52;12.10;;;13.60;99.90;;;;;;5040436;28;25063;-62
2021/10/15 05:07:57;;;;;;;20.17;12.52;;;13.60;99.90;;;;;;5043028;28;25150;-63
2021/10/15 05:10:24;;;;;;;19.40;11.13;;;13.60;99.90;;;;;;5043828;28;25118;-63
2021/10/15 05:12:51;;;;;;;23.60;13.95;;;13.60;99.90;;;;;;5043719;28;25064;-60
2021/10/15 05:15:18;;;;;;;22.30;13.48;;;13.60;99.90;;;;;;5048980;28;25081;-62
2021/10/15 05:17:44;;;;;;;20.67;14.10;;;13.60;99.90;;;;;;5028143;28;25078;-62
2021/10/15 05:20:12;;;;;;;28.73;14.32;;;13.70;99.90;;;;;;5047838;28;25059;-61
2021/10/15 05:22:38;;;;;;;23.83;14.10;;;13.70;99.90;;;;;;5034213;28;25070;-62
2021/10/15 05:25:05;;;;;;;20.38;14.75;;;13.60;99.90;;;;;;5041719;28;25144;-61
2021/10/15 05:27:31;;;;;;;21.30;14.13;;;13.60;99.90;;;;;;5038133;28;25076;-62
2021/10/15 05:29:58;;;;;;;25.48;14.20;;;13.70;99.90;;;;;;5045777;28;25076;-62
2021/10/15 05:32:24;;;;;;;25.23;14.77;;;13.70;99.90;;;;;;5041856;28;25069;-61
2021/10/15 05:34:49;;;;;;;23.85;14.30;;;13.60;99.90;;;;;;5048960;28;25057;-62
2021/10/15 05:37:15;;;;;;;22.50;14.45;;;13.70;99.90;;;;;;5046884;28;25067;-61
2021/10/15 05:39:41;;;;;;;29.15;14.65;;;13.60;99.90;;;;;;5043099;28;25081;-63
2021/10/15 05:42:07;;;;;;;30.95;14.77;;;13.70;99.90;;;;;;5018565;28;25063;-62
2021/10/15 05:44:33;;;;;;;26.90;15.00;;;13.60;99.90;;;;;;5044318;28;25132;-63
2021/10/15 05:47:03;;;;;;;23.80;15.18;;;13.60;99.90;;;;;;5040172;28;25080;-62
2021/10/15 05:49:29;;;;;;;27.90;15.32;;;13.60;99.90;;;;;;5042961;28;25076;-61
2021/10/15 05:52:03;;;;;;;23.27;15.05;;;13.60;99.90;;;;;;5048249;28;25111;-61
2021/10/15 05:54:33;;;;;;;23.50;15.15;;;13.50;99.90;;;;;;5046269;28;25057;-62
2021/10/15 05:59:44;;;;;;;24.38;15.30;;;13.60;99.90;;;;;;5002694;28;25093;-64
2021/10/15 06:02:10;;;;;;;31.40;16.23;;;13.60;99.90;;;;;;5042561;28;25092;-63
2021/10/15 06:15:32;;;;;;;25.90;15.50;;;13.60;99.90;;;;;;5047469;28;25055;-60
2021/10/15 06:17:58;;;;;;;30.83;16.17;;;13.60;99.90;;;;;;5040982;28;25066;-61
2021/10/15 06:20:24;;;;;;;25.85;14.85;;;13.60;99.90;;;;;;5043460;28;25142;-63
2021/10/15 06:22:50;;;;;;;26.13;15.68;;;13.60;99.90;;;;;;5042946;28;25082;-62
2021/10/15 06:25:16;;;;;;;30.00;14.50;;;13.60;99.90;;;;;;5052181;28;25102;-61
2021/10/15 06:27:42;;;;;;;24.52;14.27;;;13.50;99.90;;;;;;5047369;28;25074;-62
2021/10/15 06:30:07;;;;;;;36.17;15.75;;;13.60;99.90;;;;;;5044306;28;25064;-65
2021/10/15 06:32:33;;;;;;;31.75;17.15;;;13.60;99.90;;;;;;5043385;28;25084;-62
2021/10/15 06:34:59;;;;;;;28.92;15.82;;;13.50;99.90;;;;;;5047150;28;25059;-60
2021/10/15 06:37:25;;;;;;;26.33;14.10;;;13.40;99.90;;;;;;5046037;28;25155;-65
2021/10/15 06:39:51;;;;;;;28.98;15.00;;;13.40;99.90;;;;;;5044779;28;25054;-61
2021/10/15 06:42:17;;;;;;;29.50;13.10;;;13.40;99.90;;;;;;5039460;28;25139;-62
2021/10/15 06:44:42;;;;;;;23.95;10.40;;;13.40;99.90;;;;;;5046755;28;25071;-60
2021/10/15 06:47:08;;;;;;;19.77;7.20;;;13.30;99.90;;;;;;5043265;28;25105;-60
2021/10/15 06:49:33;;;;;;;11.50;5.88;;;13.30;99.90;;;;;;5042974;28;25077;-61
2021/10/15 06:51:59;;;;;;;15.40;6.75;;;13.30;99.90;;;;;;5033702;28;25072;-60
2021/10/15 06:54:25;;;;;;;12.68;5.80;;;13.20;99.90;;;;;;5047437;28;25112;-59
2021/10/15 06:56:50;;;;;;;12.00;4.63;;;13.20;99.90;;;;;;5044644;28;25100;-62
2021/10/15 06:59:16;;;;;;;10.57;3.05;;;13.10;99.90;;;;;;5047425;28;25076;-61
2021/10/15 07:01:42;;;;;;;4.53;1.98;;;12.90;99.90;;;;;;5046538;28;25102;-60
2021/10/15 07:04:07;;;;;;;4.28;2.20;;;12.80;99.90;;;;;;5048446;28;25053;-61
2021/10/15 07:06:34;;;;;;;2.00;1.45;;;12.70;99.90;;;;;;5046481;28;25172;-60
2021/10/15 07:09:00;;;;;;;1.85;1.60;;;12.60;99.90;;;;;;5041451;28;25113;-62
2021/10/15 07:11:26;;;;;;;4.30;1.10;;;12.60;99.90;;;;;;5040666;28;25081;-59
2021/10/15 07:13:51;;;;;;;1.05;0.75;;;12.50;99.90;;;;;;5042101;28;25060;-60
2021/10/15 07:16:17;;;;;;;2.38;0.95;;;12.30;99.90;;;;;;5030862;28;25147;-63
2021/10/15 07:18:42;;;;;;;2.80;1.00;;;12.20;99.90;;;;;;5046945;28;25173;-62
2021/10/15 07:21:09;;;;;;;4.18;1.00;;;12.20;99.90;;;;;;5047156;28;25117;-62
2021/10/15 07:23:35;;;;;;;3.25;0.95;;;12.10;99.90;;;;;;5045099;28;25152;-62
2021/10/15 07:26:02;;;;;;;7.40;1.88;;;12.10;99.90;;;;;;5046967;28;25070;-62
2021/10/15 07:28:28;;;;;;;2.85;0.80;;;11.90;99.90;;;;;;5047002;28;25142;-61
2021/10/15 07:30:57;;;;;;;4.28;1.00;;;11.90;99.90;;;;;;5046447;28;25070;-62
2021/10/15 07:33:23;;;;;;;6.82;1.23;;;11.90;99.90;;;;;;5044953;28;25133;-60
2021/10/15 07:35:49;;;;;;;7.32;2.10;;;11.80;99.90;;;;;;5029659;28;25119;-62
2021/10/15 07:38:15;;;;;;;6.00;2.08;;;11.80;99.90;;;;;;5047787;28;25114;-62
2021/10/15 07:40:40;;;;;;;5.93;1.60;;;11.70;99.90;;;;;;5047035;28;25187;-61
2021/10/15 07:43:06;;;;;;;9.30;1.23;;;11.70;99.90;;;;;;5046694;28;25067;-61
2021/10/15 07:45:32;;;;;;;7.75;1.35;;;11.70;99.90;;;;;;5046362;28;25128;-59
2021/10/15 07:47:59;;;;;;;8.80;1.42;;;11.70;99.90;;;;;;5047216;28;25067;-61
2021/10/15 07:50:24;;;;;;;11.05;2.05;;;11.80;99.90;;;;;;5045289;28;25143;-61
2021/10/15 07:52:50;;;;;;;9.77;1.92;;;11.80;99.90;;;;;;5044886;28;25058;-60
2021/10/15 07:55:16;;;;;;;9.32;1.40;;;11.80;99.90;;;;;;5030182;28;25068;-61
2021/10/15 07:57:41;;;;;;;7.50;2.17;;;11.80;99.90;;;;;;5039746;28;25111;-62
2021/10/15 08:00:09;;;;;;;11.63;1.92;;;11.90;99.90;;;;;;5046207;28;25078;-63
2021/10/15 08:02:35;;;;;;;4.65;1.63;;;11.90;99.90;;;;;;5047039;28;25051;-62
2021/10/15 08:05:00;;;;;;;11.23;2.00;;;11.90;99.90;;;;;;5042230;28;25059;-60
2021/10/15 08:07:26;;;;;;;9.50;2.17;;;11.90;99.90;;;;;;5033728;28;25067;-63
2021/10/15 08:09:52;;;;;;;10.40;2.08;;;11.90;99.90;;;;;;5009537;28;25151;-61
2021/10/15 08:12:17;;;;;;;8.93;1.83;;;12.00;99.90;;;;;;5047554;28;25056;-60
2021/10/15 08:14:43;;;;;;;14.00;2.58;;;12.00;99.90;;;;;;5054047;28;25082;-61
2021/10/15 08:17:09;;;;;;;9.45;2.30;;;12.00;99.90;;;;;;5055807;28;25055;-63
2021/10/15 08:19:35;;;;;;;11.98;2.25;;;12.00;99.90;;;;;;5042720;28;25056;-62
2021/10/15 08:22:01;;;;;;;16.13;2.33;;;12.00;99.90;;;;;;5046565;28;25061;-61
2021/10/15 08:24:28;;;;;;;15.57;2.38;;;12.10;99.90;;;;;;5028203;28;25137;-63
2021/10/15 08:26:54;;;;;;;6.80;1.83;;;12.20;99.90;;;;;;5046242;28;25066;-61
2021/10/15 08:29:20;;;;;;;18.90;3.55;;;12.10;99.90;;;;;;5029416;28;25069;-61
2021/10/15 08:31:47;;;;;;;9.10;2.17;;;12.00;99.90;;;;;;5045108;28;25092;-63
2021/10/15 08:34:13;;;;;;;8.95;2.15;;;12.00;99.90;;;;;;5044831;28;25046;-60
2021/10/15 08:36:39;;;;;;;11.30;2.80;;;12.00;99.90;;;;;;5047012;28;25094;-61
2021/10/15 08:39:06;;;;;;;10.45;2.00;;;12.10;99.90;;;;;;5012580;28;25106;-61
2021/10/15 08:41:31;;;;;;;9.73;1.80;;;12.10;99.90;;;;;;5038242;28;25055;-62
2021/10/15 08:43:58;;;;;;;15.45;2.25;;;12.10;99.90;;;;;;5045555;28;25083;-61
2021/10/15 08:46:24;;;;;;;9.93;2.08;;;12.10;99.90;;;;;;5047757;28;25071;-60
2021/10/15 08:48:50;;;;;;;11.43;2.13;;;12.10;99.90;;;;;;5045680;28;25107;-61
2021/10/15 08:51:18;;;;;;;14.27;2.42;;;12.10;99.90;;;;;;5046124;28;25140;-62
2021/10/15 08:53:55;;;;;;;12.23;2.72;;;12.20;99.90;;;;;;5023033;28;25080;-59
2021/10/15 08:56:23;;;;;;;12.35;2.10;;;12.30;99.90;;;;;;5045592;28;25104;-61
2021/10/15 08:58:56;;;;;;;17.02;2.60;;;12.40;99.90;;;;;;5046455;28;25066;-60
2021/10/15 09:01:24;;;;;;;19.45;3.30;;;12.40;99.90;;;;;;5046752;28;25075;-60
2021/10/15 09:03:55;;;;;;;13.77;2.40;;;12.40;99.90;;;;;;5047684;28;25122;-62
2021/10/15 09:06:21;;;;;;;13.03;2.80;;;12.40;99.90;;;;;;5044096;28;25149;-61
2021/10/15 09:08:55;;;;;;;12.98;2.20;;;12.40;99.90;;;;;;5047457;28;25105;-61
2021/10/15 09:11:41;;;;;;;13.55;2.50;;;12.40;99.90;;;;;;5044853;28;25107;-62
2021/10/15 09:14:23;;;;;;;13.68;2.55;;;12.40;99.90;;;;;;5038482;28;25048;-62
2021/10/15 09:17:15;;;;;;;9.63;2.13;;;12.40;99.90;;;;;;5046320;28;25090;-62
2021/10/15 09:19:46;;;;;;;17.05;3.03;;;12.50;99.90;;;;;;5047492;28;25129;-61
2021/10/15 09:22:25;;;;;;;17.83;2.80;;;12.50;99.90;;;;;;5048804;28;25370;-62
2021/10/15 09:25:12;;;;;;;17.23;2.30;;;12.60;99.90;;;;;;5048256;28;25086;-61
2021/10/15 09:27:42;;;;;;;14.68;2.50;;;12.60;99.90;;;;;;5040044;28;25071;-62
2021/10/15 09:30:22;;;;;;;17.98;2.40;;;12.60;99.90;;;;;;5048771;28;25069;-61
2021/10/15 09:32:50;;;;;;;13.38;2.28;;;12.70;99.90;;;;;;5039268;28;25069;-61
2021/10/15 09:35:21;;;;;;;13.40;2.30;;;12.80;99.90;;;;;;5048173;28;25060;-61
2021/10/15 09:37:48;;;;;;;9.98;2.55;;;12.80;99.90;;;;;;5048697;28;25059;-60
2021/10/15 09:40:20;;;;;;;11.35;2.45;;;12.80;99.90;;;;;;5049154;28;25127;-60
2021/10/15 09:42:47;;;;;;;;;;;12.90;99.90;;;;;;5039320;28;25090;-61
2021/10/15 09:45:18;;;;;;;17.10;2.85;;;12.90;99.90;;;;;;5048672;28;25103;-60
2021/10/15 09:47:55;;;;;;;13.43;2.67;;;13.10;99.90;;;;;;5047639;28;25083;-59
2021/10/15 09:50:24;;;;;;;18.70;2.80;;;13.20;99.90;;;;;;5048225;28;25058;-59
2021/10/15 09:52:55;;;;;;;19.40;3.22;;;13.30;99.90;;;;;;5048432;28;25041;-62
2021/10/15 09:55:41;;;;;;;14.63;2.65;;;13.30;99.90;;;;;;5048419;28;25129;-60
2021/10/15 09:58:08;;;;;;;9.93;2.13;;;13.40;99.90;;;;;;5048444;28;25073;-61
2021/10/15 10:00:34;;;;;;;13.73;2.55;;;13.40;99.90;;;;;;5047497;28;25090;-61
2021/10/15 10:03:01;;;;;;;14.30;2.60;;;13.50;99.90;;;;;;5047505;28;25102;-61
2021/10/15 10:05:27;;;;;;;9.85;1.95;;;13.70;99.90;;;;;;5031855;28;25072;-62
2021/10/15 10:07:54;;;;;;;10.10;2.13;;;13.50;99.90;;;;;;5040733;28;25052;-61
2021/10/15 10:10:23;;;;;;;12.27;3.25;;;13.40;99.90;;;;;;5048227;28;25053;-61
2021/10/15 10:12:50;;;;;;;10.30;2.30;;;13.40;99.90;;;;;;5034824;28;25064;-59
2021/10/15 10:15:18;;;;;;;12.80;2.38;;;13.50;99.90;;;;;;5039931;28;25076;-61
2021/10/15 10:18:23;;;;;;;13.60;2.13;;;13.60;99.90;;;;;;5047296;28;25085;-60
2021/10/15 10:20:58;;;;;;;12.20;2.17;;;13.60;99.90;;;;;;5019923;28;25061;-60
2021/10/15 10:23:27;;;;;;;9.75;2.55;;;13.50;99.90;;;;;;5045628;28;25072;-60
2021/10/15 10:26:01;;;;;;;8.95;2.08;;;13.60;99.90;;;;;;5047199;28;25132;-61
2021/10/15 10:28:28;;;;;;;12.30;1.80;;;13.70;99.90;;;;;;5047896;28;25102;-60
2021/10/15 10:30:57;;;;;;;13.65;2.13;;;13.70;99.90;;;;;;5083662;22;25083;-65
2021/10/15 10:33:24;;;;;;;9.95;1.58;;;13.80;99.90;;;;;;5065661;28;25102;-64
2021/10/15 10:35:51;;;;;;;12.35;1.95;;;13.90;99.90;;;;;;5067806;28;25101;-67
2021/10/15 10:38:19;;;;;;;10.90;2.45;;;14.00;99.90;;;;;;5075685;28;25097;-64
2021/10/15 10:41:01;;;;;;;14.73;2.25;;;14.00;99.90;;;;;;5073816;28;25095;-66
2021/10/15 10:43:31;;;;;;;9.63;1.63;;;14.00;99.90;;;;;;5069591;28;25074;-66
2021/10/15 10:46:08;;;;;;;18.10;2.60;;;14.20;99.90;;;;;;5066379;28;25135;-64
2021/10/15 10:48:46;;;;;;;10.68;3.03;;;14.10;99.90;;;;;;5066595;28;25133;-65
2021/10/15 10:51:26;;;;;;;8.05;2.10;;;14.20;99.90;;;;;;5067613;28;25056;-65
2021/10/15 10:54:01;;;;;;;7.63;1.80;;;14.30;99.90;;;;;;5067124;28;25065;-64
2021/10/15 10:56:39;;;;;;;9.93;2.05;;;14.30;99.90;;;;;;5059634;28;25107;-65
2021/10/15 10:59:25;;;;;;;9.25;2.58;;;14.30;99.90;;;;;;5067788;28;25106;-65
2021/10/15 11:01:54;;;;;;;8.90;2.05;;;14.50;99.90;;;;;;5067633;28;25070;-66
2021/10/15 11:04:25;;;;;;;11.10;2.20;;;14.90;99.90;;;;;;5056920;28;25062;-65
2021/10/15 11:06:55;;;;;;;9.63;2.05;;;15.20;99.90;;;;;;5065691;28;25086;-65
2021/10/15 11:09:46;;;;;;;6.55;2.33;;;15.50;99.90;;;;;;5066045;28;25065;-65
2021/10/15 11:12:13;;;;;;;7.53;2.45;;;15.70;99.90;;;;;;5060568;28;25068;-64
2021/10/15 11:15:05;;;;;;;11.25;2.25;;;15.60;99.90;;;;;;5061762;28;25084;-64
2021/10/15 11:17:48;;;;;;;8.93;2.22;;;14.60;99.90;;;;;;5064057;28;25073;-65
2021/10/15 11:20:20;;;;;;;9.90;1.90;;;14.60;99.90;;;;;;5067864;28;25072;-66
2021/10/15 11:23:19;;;;;;;12.18;1.92;;;14.80;99.90;;;;;;5066567;28;25097;-67
2021/10/15 11:25:47;;;;;;;11.13;2.20;;;14.70;99.90;;;;;;5020512;28;25150;-64
2021/10/15 11:28:14;;;;;;;9.45;2.15;;;15.00;99.90;;;;;;5065168;28;25087;-65
2021/10/15 11:30:44;;;;;;;9.30;1.70;;;15.20;99.90;;;;;;5064864;28;25079;-66
2021/10/15 11:33:12;;;;;;;14.07;2.78;;;15.30;99.90;;;;;;5060765;28;25137;-66
2021/10/15 11:35:41;;;;;;;17.77;2.33;;;14.70;99.90;;;;;;5066220;28;25067;-66
2021/10/15 11:38:08;;;;;;;11.02;2.00;;;14.20;99.90;;;;;;5068570;28;25131;-64
2021/10/15 11:40:35;;;;;;;10.15;1.75;;;14.10;99.90;;;;;;5072488;28;25074;-67
2021/10/15 11:43:24;;;;;;;16.10;2.53;;;14.10;99.90;;;;;;5068230;28;25060;-65
2021/10/15 11:46:02;;;;;;;11.25;2.70;;;14.80;99.90;;;;;;5053115;28;25069;-64
2021/10/15 11:48:45;;;;;;;10.07;2.30;;;15.10;99.90;;;;;;5065820;28;25098;-68
2021/10/15 11:51:19;;;;;;;11.40;2.35;;;15.20;99.90;;;;;;5060665;28;25080;-65
2021/10/15 11:53:49;;;;;;;15.02;2.72;;;15.30;99.90;;;;;;5075482;28;25099;-68
2021/10/15 11:56:20;;;;;;;11.52;2.30;;;15.50;99.90;;;;;;5062505;28;25054;-66
2021/10/15 11:58:50;;;;;;;9.80;1.77;;;14.90;99.90;;;;;;5072704;28;25058;-65
2021/10/15 12:01:19;;;;;;;9.70;2.83;;;14.90;99.90;;;;;;5056779;28;25047;-65
2021/10/15 12:03:52;;;;;;;10.73;2.47;;;15.30;99.90;;;;;;5061579;28;25117;-65
2021/10/15 12:06:24;;;;;;;14.57;3.72;;;15.70;99.90;;;;;;5063045;28;25098;-66
2021/10/15 12:08:55;;;;;;;9.27;1.90;;;16.20;99.90;;;;;;5056612;28;25135;-67
2021/10/15 12:11:33;;;;;;;10.85;2.33;;;16.10;99.90;;;;;;5059765;28;25155;-66
2021/10/15 12:14:01;;;;;;;10.93;1.90;;;16.10;99.90;;;;;;5060273;28;25069;-66
2021/10/15 12:16:42;;;;;;;9.20;2.03;;;16.10;99.90;;;;;;5044252;28;25155;-66
2021/10/15 12:19:12;;;;;;;11.10;2.00;;;16.40;99.80;;;;;;5056737;28;25097;-66
2021/10/15 12:21:39;;;;;;;12.00;2.47;;;16.00;99.90;;;;;;5058450;28;25104;-66
2021/10/15 12:24:36;;;;;;;10.25;2.00;;;15.30;98.70;;;;;;5059974;28;25065;-66
2021/10/15 12:27:05;;;;;;;9.98;2.50;;;15.20;99.20;;;;;;5066066;28;25155;-66
2021/10/15 12:29:32;;;;;;;9.35;2.58;;;15.40;99.40;;;;;;5065623;28;25054;-66
2021/10/15 12:32:32;;;;;;;10.55;2.38;;;15.80;99.70;;;;;;5028915;28;25046;-67
2021/10/15 12:35:13;;;;;;;16.55;3.72;;;16.00;99.40;;;;;;5012814;28;25138;-66
2021/10/15 12:37:43;;;;;;;12.82;2.65;;;15.60;98.80;;;;;;5067653;28;25055;-66
2021/10/15 12:40:33;;;;;;;12.10;2.45;;;15.50;99.90;;;;;;5070533;28;25082;-65
2021/10/15 12:43:18;;;;;;;16.23;3.10;;;15.30;99.90;;;;;;5072617;28;25075;-65
2021/10/15 12:45:49;;;;;;;20.60;3.95;;;15.00;99.90;;;;;;5071456;28;25083;-67
2021/10/15 12:48:23;;;;;;;22.63;4.73;;;14.30;99.90;;;;;;5070525;28;25081;-65
2021/10/15 12:51:10;;;;;;;16.40;4.32;;;14.30;99.90;;;;;;5070352;28;25097;-68
2021/10/15 12:53:39;;;;;;;19.33;3.63;;;14.80;99.90;;;;;;5056658;28;25149;-66